»·PEaware :: N228ME KKNB-KLGB

N228ME :: KKNB-KLGB

FLIGHT INFORMATION

Flight Status: Arrived
Operator: Privately registered:
United States
More flights under this callsign
Pilot: Donald B. (31773)
Aircraft: CESSNA 208 CARAVAN
(C208)
More flights by this aircraft type
Origin: KKNB Kanab Mun
United States
Destination: KLGB Long Beach
United States
More flights between these airports :: More routes between these airports
Route: +V514 TNP V370 PSP V388 PDZ PDZ270 DOWDD V394 SLI
File this flight plan on PilotEdge
Remarks: P / U over GFS
Altitude:
(Current/Filed)
16,000ft
Speed:
(Current/Filed)
165kts
Departed: 21-Nov-20 08:58 PM
Arrived: 21-Nov-20 10:26 PM
Distance/Time
Traveled:
6470nm/1:27
Distance/Time
To Go:
Arrived

Flight Plot

Page will automatically refresh every two minutes.

Flight plan parsing failed; only flown route is shown


Map Options




Map Legend


Flown Route
Filed Route
Departure Airport
Arrival Airport
Navaid (VOR, NDB)
Fix

Horizontal Profiles

Position Reports

Time Latitude Longitude Heading Altitude Ground
Speed
21-Nov-20 20:45 37.010742 -112.529289 216 4855ft 0kts
21-Nov-20 20:46 37.010742 -112.529289 216 4855ft 0kts
21-Nov-20 20:47 37.010741 -112.529290 217 4855ft 0kts
21-Nov-20 20:48 37.010741 -112.529290 217 4855ft 0kts
21-Nov-20 20:49 37.010741 -112.529290 216 4855ft 0kts
21-Nov-20 20:50 37.010741 -112.529289 216 4855ft 0kts
21-Nov-20 20:51 37.010741 -112.529289 216 4855ft 0kts
21-Nov-20 20:52 37.010741 -112.529289 216 4855ft 0kts
21-Nov-20 20:53 37.010741 -112.529289 216 4855ft 0kts
21-Nov-20 20:54 37.010749 -112.529507 352 4855ft 0kts
21-Nov-20 20:55 37.011890 -112.530540 350 4858ft 16kts
21-Nov-20 20:56 37.018102 -112.527929 116 4871ft 0kts
21-Nov-20 20:57 36.999110 -112.535133 186 5278ft 124kts
21-Nov-20 20:58 36.979296 -112.574592 234 6096ft 155kts
21-Nov-20 20:59 36.952149 -112.617484 228 6910ft 159kts
21-Nov-20 21:00 36.923278 -112.658890 229 7806ft 158kts
21-Nov-20 21:01 36.895119 -112.700110 229 8775ft 157kts
21-Nov-20 21:02 36.866361 -112.741941 229 9641ft 160kts
21-Nov-20 21:03 36.835892 -112.786257 229 10247ft 158kts
21-Nov-20 21:04 36.808372 -112.826247 229 11336ft 152kts
21-Nov-20 21:05 36.780404 -112.866801 228 12245ft 155kts
21-Nov-20 21:06 36.752232 -112.907625 229 13116ft 155kts
21-Nov-20 21:07 36.723881 -112.948653 230 13932ft 156kts
21-Nov-20 21:08 36.695566 -112.989574 231 14701ft 156kts
21-Nov-20 21:09 36.667033 -113.030770 231 15428ft 156kts
21-Nov-20 21:10 36.638613 -113.071741 232 16134ft 155kts
21-Nov-20 21:11 36.449584 -113.343004 231 16351ft 178kts
21-Nov-20 21:12 36.191937 -113.709059 231 16345ft 175kts
21-Nov-20 21:13 35.935463 -114.069850 231 16336ft 173kts
21-Nov-20 21:14 35.681174 -114.423603 232 16344ft 173kts
21-Nov-20 21:15 35.427181 -114.773336 232 16333ft 169kts
21-Nov-20 21:16 35.174845 -115.117236 232 16326ft 169kts
21-Nov-20 21:17 34.869949 -115.291775 206 16324ft 178kts
21-Nov-20 21:18 34.823319 -115.312271 207 16320ft 178kts
21-Nov-20 21:19 34.776638 -115.332781 207 16311ft 177kts
21-Nov-20 21:20 34.730117 -115.353213 206 16080ft 183kts
21-Nov-20 21:21 34.681974 -115.374269 206 15823ft 181kts
21-Nov-20 21:22 34.635000 -115.394853 207 15812ft 178kts
21-Nov-20 21:23 34.588312 -115.415253 207 15814ft 178kts
21-Nov-20 21:24 34.541662 -115.435624 207 15810ft 178kts
21-Nov-20 21:25 34.494832 -115.456043 207 15816ft 179kts
21-Nov-20 21:26 34.447913 -115.476478 207 15806ft 178kts
21-Nov-20 21:27 34.403401 -115.495859 208 16037ft 169kts
21-Nov-20 21:28 34.358509 -115.515350 208 16060ft 172kts
21-Nov-20 21:29 34.316635 -115.541010 225 16049ft 164kts
21-Nov-20 21:30 34.282606 -115.578036 229 16067ft 165kts
21-Nov-20 21:31 34.249108 -115.616164 229 16051ft 165kts
21-Nov-20 21:32 34.215593 -115.653801 229 16031ft 162kts
21-Nov-20 21:33 34.181975 -115.691627 229 16091ft 168kts
21-Nov-20 21:34 34.147959 -115.729820 229 16047ft 166kts
21-Nov-20 21:35 34.115159 -115.769119 240 15811ft 169kts
21-Nov-20 21:36 34.093541 -115.820305 249 15228ft 171kts
21-Nov-20 21:37 34.074703 -115.873237 248 14617ft 172kts
21-Nov-20 21:38 34.055121 -115.926647 247 14012ft 174kts
21-Nov-20 21:39 34.035498 -115.980413 247 13414ft 176kts
21-Nov-20 21:40 34.015687 -116.034533 247 12811ft 177kts
21-Nov-20 21:41 33.995692 -116.089058 247 12201ft 178kts
21-Nov-20 21:43 33.975629 -116.143678 246 11598ft 179kts
21-Nov-20 21:44 33.955401 -116.198666 246 11001ft 180kts
21-Nov-20 21:45 33.934964 -116.254131 247 10416ft 181kts
21-Nov-20 21:46 33.914755 -116.308909 246 10068ft 175kts
21-Nov-20 21:47 33.895254 -116.361650 246 10046ft 171kts
21-Nov-20 21:48 33.875959 -116.413743 246 10047ft 170kts
21-Nov-20 21:49 33.879702 -116.468636 285 10049ft 169kts
21-Nov-20 21:50 33.893697 -116.522726 287 10041ft 170kts
21-Nov-20 21:51 33.907484 -116.577116 287 10042ft 169kts
21-Nov-20 21:52 33.921307 -116.631687 287 10044ft 172kts
21-Nov-20 21:53 33.935332 -116.687162 287 10044ft 173kts
21-Nov-20 21:54 33.947169 -116.743265 274 10043ft 173kts
21-Nov-20 21:55 33.946738 -116.801606 267 10041ft 174kts
21-Nov-20 21:56 33.944279 -116.861516 268 9642ft 185kts
21-Nov-20 21:57 33.942076 -116.923784 267 9039ft 186kts
21-Nov-20 21:58 33.939751 -116.986347 267 8428ft 187kts
21-Nov-20 21:59 33.937405 -117.049182 267 7725ft 187kts
21-Nov-20 21:59 33.935425 -117.101332 267 7136ft 186kts
21-Nov-20 22:01 33.932643 -117.173725 267 6313ft 184kts
21-Nov-20 22:01 33.930697 -117.223679 267 6048ft 174kts
21-Nov-20 22:03 33.928088 -117.290562 267 6017ft 170kts
21-Nov-20 22:03 33.926173 -117.337993 267 6020ft 169kts
21-Nov-20 22:04 33.923898 -117.394686 267 6017ft 170kts
21-Nov-20 22:06 33.921193 -117.460872 267 6013ft 170kts
21-Nov-20 22:06 33.919242 -117.508208 267 6012ft 170kts
21-Nov-20 22:07 33.926265 -117.566743 284 5449ft 182kts
21-Nov-20 22:08 33.939499 -117.624711 285 4728ft 178kts
21-Nov-20 22:09 33.952123 -117.681763 285 4097ft 173kts
21-Nov-20 22:10 33.964039 -117.735467 285 4004ft 162kts
21-Nov-20 22:11 33.975488 -117.787195 285 4013ft 159kts
21-Nov-20 22:12 33.976343 -117.835392 203 3978ft 158kts
21-Nov-20 22:13 33.936508 -117.856446 200 4015ft 157kts
21-Nov-20 22:14 33.895022 -117.868729 171 4017ft 157kts
21-Nov-20 22:15 33.852210 -117.857878 162 4024ft 158kts
21-Nov-20 22:16 33.808782 -117.864346 192 3831ft 166kts
21-Nov-20 22:17 33.777324 -117.893762 281 3129ft 170kts
21-Nov-20 22:18 33.785807 -117.942617 282 2627ft 137kts
21-Nov-20 22:19 33.799697 -117.982868 302 1978ft 133kts
21-Nov-20 22:20 33.816466 -118.014928 302 1537ft 110kts
21-Nov-20 22:21 33.821438 -118.043542 274 1463ft 95kts
21-Nov-20 22:22 33.822388 -118.075105 270 1228ft 95kts
21-Nov-20 22:23 33.822483 -118.105439 271 1009ft 96kts
21-Nov-20 22:24 33.822616 -118.139268 270 221ft 100kts
21-Nov-20 22:25 33.822678 -118.155901 276 58ft 0kts
21-Nov-20 22:26 0.000408 0.013975 0 7ft 0kts

Navigation Log

Ident Type
Flight plan parsing failed, navigation log unavailable